sensor_id;sensor_type;location;lat;lon;timestamp;P1;durP1;ratioP1;P2;durP2;ratioP2
26034;SDS011;13809;48.632;11.576;2022-09-13T00:02:41;4.73;;;4.43;;
26034;SDS011;13809;48.632;11.576;2022-09-13T00:07:44;4.83;;;4.40;;
26034;SDS011;13809;48.632;11.576;2022-09-13T00:12:47;5.23;;;4.83;;
26034;SDS011;13809;48.632;11.576;2022-09-13T00:17:51;4.80;;;4.40;;
26034;SDS011;13809;48.632;11.576;2022-09-13T00:22:54;4.20;;;3.90;;
26034;SDS011;13809;48.632;11.576;2022-09-13T00:27:58;5.00;;;4.60;;
26034;SDS011;13809;48.632;11.576;2022-09-13T00:33:02;4.90;;;4.40;;
26034;SDS011;13809;48.632;11.576;2022-09-13T00:38:05;4.00;;;3.70;;
26034;SDS011;13809;48.632;11.576;2022-09-13T00:43:11;4.17;;;3.87;;
26034;SDS011;13809;48.632;11.576;2022-09-13T00:48:20;4.87;;;4.47;;
26034;SDS011;13809;48.632;11.576;2022-09-13T00:53:27;5.37;;;4.87;;
26034;SDS011;13809;48.632;11.576;2022-09-13T00:58:35;4.70;;;4.30;;
26034;SDS011;13809;48.632;11.576;2022-09-13T01:03:43;4.17;;;3.60;;
26034;SDS011;13809;48.632;11.576;2022-09-13T01:08:50;4.00;;;3.70;;
26034;SDS011;13809;48.632;11.576;2022-09-13T01:13:54;4.30;;;4.00;;
26034;SDS011;13809;48.632;11.576;2022-09-13T01:19:00;3.90;;;3.60;;
26034;SDS011;13809;48.632;11.576;2022-09-13T01:35:22;3.80;;;3.50;;
26034;SDS011;13809;48.632;11.576;2022-09-13T01:40:35;4.17;;;3.87;;
26034;SDS011;13809;48.632;11.576;2022-09-13T01:45:54;3.83;;;3.53;;
26034;SDS011;13809;48.632;11.576;2022-09-13T01:51:05;4.03;;;3.73;;
26034;SDS011;13809;48.632;11.576;2022-09-13T01:56:15;3.70;;;3.50;;
26034;SDS011;13809;48.632;11.576;2022-09-13T02:01:25;4.10;;;3.80;;
26034;SDS011;13809;48.632;11.576;2022-09-13T02:06:33;5.57;;;4.77;;
26034;SDS011;13809;48.632;11.576;2022-09-13T02:11:41;4.70;;;4.30;;
26034;SDS011;13809;48.632;11.576;2022-09-13T02:16:50;4.17;;;3.87;;
26034;SDS011;13809;48.632;11.576;2022-09-13T02:21:58;3.77;;;3.50;;
26034;SDS011;13809;48.632;11.576;2022-09-13T02:27:04;4.70;;;4.40;;
26034;SDS011;13809;48.632;11.576;2022-09-13T02:32:13;4.83;;;4.33;;
26034;SDS011;13809;48.632;11.576;2022-09-13T02:37:18;4.80;;;4.40;;
26034;SDS011;13809;48.632;11.576;2022-09-13T02:42:24;3.80;;;3.50;;
26034;SDS011;13809;48.632;11.576;2022-09-13T02:47:41;3.73;;;3.43;;
26034;SDS011;13809;48.632;11.576;2022-09-13T02:52:49;4.00;;;3.70;;
26034;SDS011;13809;48.632;11.576;2022-09-13T02:58:04;3.47;;;3.17;;
26034;SDS011;13809;48.632;11.576;2022-09-13T03:03:13;3.13;;;2.93;;
26034;SDS011;13809;48.632;11.576;2022-09-13T03:08:17;3.33;;;3.13;;
26034;SDS011;13809;48.632;11.576;2022-09-13T03:19:00;3.07;;;2.87;;
26034;SDS011;13809;48.632;11.576;2022-09-13T03:24:15;2.50;;;2.30;;
26034;SDS011;13809;48.632;11.576;2022-09-13T03:29:24;3.13;;;2.93;;
26034;SDS011;13809;48.632;11.576;2022-09-13T03:34:35;2.73;;;2.60;;
26034;SDS011;13809;48.632;11.576;2022-09-13T03:39:46;3.80;;;3.50;;
26034;SDS011;13809;48.632;11.576;2022-09-13T03:44:54;3.27;;;3.07;;
26034;SDS011;13809;48.632;11.576;2022-09-13T03:50:01;4.20;;;3.90;;
26034;SDS011;13809;48.632;11.576;2022-09-13T03:55:05;4.40;;;4.00;;
26034;SDS011;13809;48.632;11.576;2022-09-13T04:00:09;4.27;;;3.97;;
26034;SDS011;13809;48.632;11.576;2022-09-13T04:05:16;3.87;;;3.40;;
26034;SDS011;13809;48.632;11.576;2022-09-13T04:10:19;3.17;;;2.97;;
26034;SDS011;13809;48.632;11.576;2022-09-13T04:15:24;3.03;;;2.83;;
26034;SDS011;13809;48.632;11.576;2022-09-13T04:20:29;3.83;;;3.53;;
26034;SDS011;13809;48.632;11.576;2022-09-13T04:25:32;3.90;;;3.60;;
26034;SDS011;13809;48.632;11.576;2022-09-13T04:30:35;3.60;;;3.30;;
26034;SDS011;13809;48.632;11.576;2022-09-13T04:35:44;3.43;;;3.13;;
26034;SDS011;13809;48.632;11.576;2022-09-13T04:40:51;4.00;;;3.70;;
26034;SDS011;13809;48.632;11.576;2022-09-13T04:45:58;4.20;;;3.80;;
26034;SDS011;13809;48.632;11.576;2022-09-13T04:51:03;3.90;;;3.60;;
26034;SDS011;13809;48.632;11.576;2022-09-13T04:56:06;4.07;;;3.77;;
26034;SDS011;13809;48.632;11.576;2022-09-13T05:01:10;4.60;;;4.20;;
26034;SDS011;13809;48.632;11.576;2022-09-13T05:06:15;5.00;;;4.60;;
26034;SDS011;13809;48.632;11.576;2022-09-13T05:11:19;5.43;;;4.73;;
26034;SDS011;13809;48.632;11.576;2022-09-13T05:16:24;5.60;;;5.00;;
26034;SDS011;13809;48.632;11.576;2022-09-13T05:21:30;5.33;;;4.60;;
26034;SDS011;13809;48.632;11.576;2022-09-13T05:26:33;5.57;;;5.07;;
26034;SDS011;13809;48.632;11.576;2022-09-13T05:31:37;5.60;;;5.00;;
26034;SDS011;13809;48.632;11.576;2022-09-13T05:36:43;5.30;;;4.80;;
26034;SDS011;13809;48.632;11.576;2022-09-13T05:41:51;4.10;;;3.77;;
26034;SDS011;13809;48.632;11.576;2022-09-13T05:46:55;4.67;;;4.27;;
26034;SDS011;13809;48.632;11.576;2022-09-13T05:51:59;5.87;;;5.27;;
26034;SDS011;13809;48.632;11.576;2022-09-13T05:57:03;5.63;;;5.13;;
26034;SDS011;13809;48.632;11.576;2022-09-13T06:02:07;5.50;;;5.00;;
26034;SDS011;13809;48.632;11.576;2022-09-13T06:07:12;6.00;;;5.47;;
26034;SDS011;13809;48.632;11.576;2022-09-13T06:12:16;9.87;;;5.67;;
26034;SDS011;13809;48.632;11.576;2022-09-13T06:17:19;8.57;;;6.27;;
26034;SDS011;13809;48.632;11.576;2022-09-13T06:22:23;5.97;;;5.47;;
26034;SDS011;13809;48.632;11.576;2022-09-13T06:27:33;6.57;;;5.97;;
26034;SDS011;13809;48.632;11.576;2022-09-13T06:32:36;6.03;;;5.43;;
26034;SDS011;13809;48.632;11.576;2022-09-13T06:37:40;6.93;;;6.30;;
26034;SDS011;13809;48.632;11.576;2022-09-13T06:42:44;6.70;;;5.37;;
26034;SDS011;13809;48.632;11.576;2022-09-13T06:47:47;5.20;;;4.80;;
26034;SDS011;13809;48.632;11.576;2022-09-13T06:52:51;5.47;;;4.97;;
26034;SDS011;13809;48.632;11.576;2022-09-13T06:57:54;4.97;;;4.50;;
26034;SDS011;13809;48.632;11.576;2022-09-13T07:02:57;6.10;;;5.60;;
26034;SDS011;13809;48.632;11.576;2022-09-13T07:08:02;5.77;;;5.33;;
26034;SDS011;13809;48.632;11.576;2022-09-13T07:13:05;5.63;;;5.23;;
26034;SDS011;13809;48.632;11.576;2022-09-13T07:18:08;5.17;;;4.77;;
26034;SDS011;13809;48.632;11.576;2022-09-13T07:23:13;4.97;;;4.57;;
26034;SDS011;13809;48.632;11.576;2022-09-13T07:28:16;6.27;;;4.10;;
26034;SDS011;13809;48.632;11.576;2022-09-13T07:33:22;4.63;;;4.07;;
26034;SDS011;13809;48.632;11.576;2022-09-13T07:38:27;5.13;;;4.43;;
26034;SDS011;13809;48.632;11.576;2022-09-13T07:43:30;4.27;;;3.97;;
26034;SDS011;13809;48.632;11.576;2022-09-13T07:48:34;4.63;;;3.90;;
26034;SDS011;13809;48.632;11.576;2022-09-13T07:53:41;4.33;;;3.90;;
26034;SDS011;13809;48.632;11.576;2022-09-13T07:58:46;4.60;;;4.20;;
26034;SDS011;13809;48.632;11.576;2022-09-13T08:03:50;4.30;;;3.90;;
26034;SDS011;13809;48.632;11.576;2022-09-13T08:08:56;4.00;;;3.70;;
26034;SDS011;13809;48.632;11.576;2022-09-13T08:13:59;4.63;;;3.87;;
26034;SDS011;13809;48.632;11.576;2022-09-13T08:19:03;3.63;;;3.33;;
26034;SDS011;13809;48.632;11.576;2022-09-13T08:24:12;8.43;;;4.07;;
26034;SDS011;13809;48.632;11.576;2022-09-13T08:29:16;4.30;;;3.90;;
26034;SDS011;13809;48.632;11.576;2022-09-13T08:34:19;4.10;;;3.80;;
26034;SDS011;13809;48.632;11.576;2022-09-13T08:39:24;4.20;;;3.80;;
26034;SDS011;13809;48.632;11.576;2022-09-13T08:44:32;4.03;;;3.73;;
26034;SDS011;13809;48.632;11.576;2022-09-13T08:49:38;3.53;;;3.23;;
26034;SDS011;13809;48.632;11.576;2022-09-13T08:54:47;3.70;;;3.33;;
26034;SDS011;13809;48.632;11.576;2022-09-13T08:59:59;3.27;;;3.07;;
26034;SDS011;13809;48.632;11.576;2022-09-13T09:05:10;2.93;;;2.73;;
26034;SDS011;13809;48.632;11.576;2022-09-13T09:10:20;3.13;;;2.93;;
26034;SDS011;13809;48.632;11.576;2022-09-13T09:15:26;2.80;;;2.60;;
26034;SDS011;13809;48.632;11.576;2022-09-13T09:20:36;2.93;;;2.67;;
26034;SDS011;13809;48.632;11.576;2022-09-13T09:25:44;3.20;;;2.90;;
26034;SDS011;13809;48.632;11.576;2022-09-13T09:30:49;2.33;;;2.13;;
26034;SDS011;13809;48.632;11.576;2022-09-13T09:35:59;2.87;;;2.67;;
26034;SDS011;13809;48.632;11.576;2022-09-13T09:41:17;2.70;;;2.50;;
26034;SDS011;13809;48.632;11.576;2022-09-13T09:46:28;2.60;;;2.40;;
26034;SDS011;13809;48.632;11.576;2022-09-13T09:51:34;2.93;;;2.50;;
26034;SDS011;13809;48.632;11.576;2022-09-13T09:56:40;2.80;;;2.60;;
26034;SDS011;13809;48.632;11.576;2022-09-13T10:01:54;2.37;;;2.13;;
26034;SDS011;13809;48.632;11.576;2022-09-13T10:07:08;2.60;;;2.40;;
26034;SDS011;13809;48.632;11.576;2022-09-13T10:12:25;2.17;;;2.07;;
26034;SDS011;13809;48.632;11.576;2022-09-13T10:17:30;2.37;;;2.17;;
26034;SDS011;13809;48.632;11.576;2022-09-13T10:22:33;2.20;;;2.10;;
26034;SDS011;13809;48.632;11.576;2022-09-13T10:27:38;2.40;;;2.00;;
26034;SDS011;13809;48.632;11.576;2022-09-13T10:32:44;2.10;;;2.00;;
26034;SDS011;13809;48.632;11.576;2022-09-13T10:37:57;1.93;;;1.83;;
26034;SDS011;13809;48.632;11.576;2022-09-13T10:43:02;2.23;;;2.10;;
26034;SDS011;13809;48.632;11.576;2022-09-13T10:54:30;1.93;;;1.83;;
26034;SDS011;13809;48.632;11.576;2022-09-13T10:59:34;2.00;;;1.90;;
26034;SDS011;13809;48.632;11.576;2022-09-13T11:10:08;1.60;;;1.50;;
26034;SDS011;13809;48.632;11.576;2022-09-13T11:15:24;1.80;;;1.70;;
26034;SDS011;13809;48.632;11.576;2022-09-13T11:20:38;1.93;;;1.80;;
26034;SDS011;13809;48.632;11.576;2022-09-13T11:25:55;2.80;;;1.60;;
26034;SDS011;13809;48.632;11.576;2022-09-13T11:31:16;1.80;;;1.70;;
26034;SDS011;13809;48.632;11.576;2022-09-13T11:36:36;2.30;;;1.67;;
26034;SDS011;13809;48.632;11.576;2022-09-13T11:41:49;1.50;;;1.40;;
26034;SDS011;13809;48.632;11.576;2022-09-13T11:47:05;1.80;;;1.70;;
26034;SDS011;13809;48.632;11.576;2022-09-13T11:52:14;2.47;;;1.53;;
26034;SDS011;13809;48.632;11.576;2022-09-13T11:57:28;1.77;;;1.67;;
26034;SDS011;13809;48.632;11.576;2022-09-13T12:02:38;1.60;;;1.50;;
26034;SDS011;13809;48.632;11.576;2022-09-13T12:07:45;2.20;;;1.57;;
26034;SDS011;13809;48.632;11.576;2022-09-13T12:12:52;2.33;;;1.90;;
26034;SDS011;13809;48.632;11.576;2022-09-13T12:17:58;1.90;;;1.80;;
26034;SDS011;13809;48.632;11.576;2022-09-13T12:23:06;2.30;;;1.83;;
26034;SDS011;13809;48.632;11.576;2022-09-13T12:28:17;2.03;;;1.93;;
26034;SDS011;13809;48.632;11.576;2022-09-13T12:33:26;2.00;;;1.80;;
26034;SDS011;13809;48.632;11.576;2022-09-13T12:49:46;1.70;;;1.60;;
26034;SDS011;13809;48.632;11.576;2022-09-13T12:55:29;1.50;;;1.40;;
26034;SDS011;13809;48.632;11.576;2022-09-13T13:00:49;1.50;;;1.40;;
26034;SDS011;13809;48.632;11.576;2022-09-13T13:06:16;1.67;;;1.47;;
26034;SDS011;13809;48.632;11.576;2022-09-13T13:11:41;1.77;;;1.60;;
26034;SDS011;13809;48.632;11.576;2022-09-13T13:16:47;1.50;;;1.40;;
26034;SDS011;13809;48.632;11.576;2022-09-13T13:21:52;1.90;;;1.80;;
26034;SDS011;13809;48.632;11.576;2022-09-13T13:26:55;1.80;;;1.60;;
26034;SDS011;13809;48.632;11.576;2022-09-13T13:32:09;1.80;;;1.70;;
26034;SDS011;13809;48.632;11.576;2022-09-13T13:42:39;2.50;;;1.67;;
26034;SDS011;13809;48.632;11.576;2022-09-13T13:48:04;2.43;;;1.67;;
26034;SDS011;13809;48.632;11.576;2022-09-13T13:53:18;2.77;;;1.73;;
26034;SDS011;13809;48.632;11.576;2022-09-13T13:58:26;1.83;;;1.73;;
26034;SDS011;13809;48.632;11.576;2022-09-13T14:03:49;1.70;;;1.60;;
26034;SDS011;13809;48.632;11.576;2022-09-13T14:09:11;1.90;;;1.80;;
26034;SDS011;13809;48.632;11.576;2022-09-13T14:14:38;1.60;;;1.57;;
26034;SDS011;13809;48.632;11.576;2022-09-13T14:19:54;1.90;;;1.80;;
26034;SDS011;13809;48.632;11.576;2022-09-13T14:25:14;1.80;;;1.70;;
26034;SDS011;13809;48.632;11.576;2022-09-13T14:30:24;1.90;;;1.80;;
26034;SDS011;13809;48.632;11.576;2022-09-13T14:35:33;2.63;;;1.70;;
26034;SDS011;13809;48.632;11.576;2022-09-13T14:40:39;2.70;;;1.77;;
26034;SDS011;13809;48.632;11.576;2022-09-13T14:45:42;2.00;;;1.90;;
26034;SDS011;13809;48.632;11.576;2022-09-13T14:50:51;1.97;;;1.80;;
26034;SDS011;13809;48.632;11.576;2022-09-13T14:56:01;2.10;;;2.00;;
26034;SDS011;13809;48.632;11.576;2022-09-13T15:01:08;2.00;;;1.90;;
26034;SDS011;13809;48.632;11.576;2022-09-13T15:06:23;2.00;;;1.90;;
26034;SDS011;13809;48.632;11.576;2022-09-13T15:11:32;2.40;;;2.20;;
26034;SDS011;13809;48.632;11.576;2022-09-13T15:16:45;2.17;;;2.00;;
26034;SDS011;13809;48.632;11.576;2022-09-13T15:21:49;2.40;;;2.20;;
26034;SDS011;13809;48.632;11.576;2022-09-13T15:27:01;2.40;;;2.20;;
26034;SDS011;13809;48.632;11.576;2022-09-13T15:32:17;2.40;;;2.20;;
26034;SDS011;13809;48.632;11.576;2022-09-13T15:37:27;2.63;;;2.40;;
26034;SDS011;13809;48.632;11.576;2022-09-13T15:42:36;2.40;;;2.30;;
26034;SDS011;13809;48.632;11.576;2022-09-13T15:47:40;2.33;;;2.20;;
26034;SDS011;13809;48.632;11.576;2022-09-13T15:52:46;2.50;;;2.30;;
26034;SDS011;13809;48.632;11.576;2022-09-13T15:57:50;2.43;;;2.23;;
26034;SDS011;13809;48.632;11.576;2022-09-13T16:02:53;2.80;;;2.37;;
26034;SDS011;13809;48.632;11.576;2022-09-13T16:07:57;2.80;;;2.70;;
26034;SDS011;13809;48.632;11.576;2022-09-13T16:13:01;3.60;;;2.77;;
26034;SDS011;13809;48.632;11.576;2022-09-13T16:18:05;3.63;;;2.97;;
26034;SDS011;13809;48.632;11.576;2022-09-13T16:23:08;2.90;;;2.70;;
26034;SDS011;13809;48.632;11.576;2022-09-13T16:28:13;3.10;;;2.90;;
26034;SDS011;13809;48.632;11.576;2022-09-13T16:33:18;3.27;;;2.97;;
26034;SDS011;13809;48.632;11.576;2022-09-13T16:38:22;2.90;;;2.67;;
26034;SDS011;13809;48.632;11.576;2022-09-13T16:43:26;4.87;;;2.40;;
26034;SDS011;13809;48.632;11.576;2022-09-13T16:48:29;2.90;;;2.60;;
26034;SDS011;13809;48.632;11.576;2022-09-13T16:53:32;3.20;;;2.97;;
26034;SDS011;13809;48.632;11.576;2022-09-13T16:58:39;4.77;;;3.20;;
26034;SDS011;13809;48.632;11.576;2022-09-13T17:03:43;3.53;;;3.17;;
26034;SDS011;13809;48.632;11.576;2022-09-13T17:08:47;3.30;;;3.00;;
26034;SDS011;13809;48.632;11.576;2022-09-13T17:13:53;4.13;;;3.80;;
26034;SDS011;13809;48.632;11.576;2022-09-13T17:18:57;4.97;;;3.57;;
26034;SDS011;13809;48.632;11.576;2022-09-13T17:24:01;3.73;;;3.43;;
26034;SDS011;13809;48.632;11.576;2022-09-13T17:29:11;3.47;;;3.17;;
26034;SDS011;13809;48.632;11.576;2022-09-13T17:34:15;4.67;;;3.47;;
26034;SDS011;13809;48.632;11.576;2022-09-13T17:39:19;3.67;;;3.43;;
26034;SDS011;13809;48.632;11.576;2022-09-13T17:44:24;4.20;;;3.90;;
26034;SDS011;13809;48.632;11.576;2022-09-13T17:49:27;3.90;;;3.60;;
26034;SDS011;13809;48.632;11.576;2022-09-13T17:54:30;4.50;;;4.20;;
26034;SDS011;13809;48.632;11.576;2022-09-13T17:59:35;4.00;;;3.70;;
26034;SDS011;13809;48.632;11.576;2022-09-13T18:04:38;3.80;;;3.37;;
26034;SDS011;13809;48.632;11.576;2022-09-13T18:09:41;4.10;;;3.80;;
26034;SDS011;13809;48.632;11.576;2022-09-13T18:14:46;4.00;;;3.70;;
26034;SDS011;13809;48.632;11.576;2022-09-13T18:19:49;4.20;;;3.77;;
26034;SDS011;13809;48.632;11.576;2022-09-13T18:24:52;3.37;;;3.07;;
26034;SDS011;13809;48.632;11.576;2022-09-13T18:29:57;3.93;;;3.53;;
26034;SDS011;13809;48.632;11.576;2022-09-13T18:35:00;3.63;;;3.33;;
26034;SDS011;13809;48.632;11.576;2022-09-13T18:40:04;4.33;;;3.60;;
26034;SDS011;13809;48.632;11.576;2022-09-13T18:45:15;3.53;;;3.33;;
26034;SDS011;13809;48.632;11.576;2022-09-13T18:50:19;5.30;;;4.80;;
26034;SDS011;13809;48.632;11.576;2022-09-13T18:55:22;4.20;;;3.90;;
26034;SDS011;13809;48.632;11.576;2022-09-13T19:00:26;5.03;;;4.40;;
26034;SDS011;13809;48.632;11.576;2022-09-13T19:05:30;5.00;;;4.60;;
26034;SDS011;13809;48.632;11.576;2022-09-13T19:10:35;5.00;;;4.60;;
26034;SDS011;13809;48.632;11.576;2022-09-13T19:15:40;4.53;;;4.13;;
26034;SDS011;13809;48.632;11.576;2022-09-13T19:20:43;7.20;;;4.93;;
26034;SDS011;13809;48.632;11.576;2022-09-13T19:25:46;5.00;;;4.50;;
26034;SDS011;13809;48.632;11.576;2022-09-13T19:30:51;5.60;;;4.47;;
26034;SDS011;13809;48.632;11.576;2022-09-13T19:35:54;4.10;;;3.80;;
26034;SDS011;13809;48.632;11.576;2022-09-13T19:40:58;5.17;;;4.07;;
26034;SDS011;13809;48.632;11.576;2022-09-13T19:46:04;4.40;;;4.10;;
26034;SDS011;13809;48.632;11.576;2022-09-13T19:51:09;6.07;;;5.60;;
26034;SDS011;13809;48.632;11.576;2022-09-13T19:56:15;4.77;;;4.37;;
26034;SDS011;13809;48.632;11.576;2022-09-13T20:01:21;4.53;;;4.23;;
26034;SDS011;13809;48.632;11.576;2022-09-13T20:06:26;5.10;;;4.70;;
26034;SDS011;13809;48.632;11.576;2022-09-13T20:11:30;3.90;;;3.60;;
26034;SDS011;13809;48.632;11.576;2022-09-13T20:16:41;5.07;;;4.60;;
26034;SDS011;13809;48.632;11.576;2022-09-13T20:21:45;4.40;;;4.10;;
26034;SDS011;13809;48.632;11.576;2022-09-13T20:26:49;3.77;;;3.57;;
26034;SDS011;13809;48.632;11.576;2022-09-13T20:31:54;5.00;;;4.50;;
26034;SDS011;13809;48.632;11.576;2022-09-13T20:36:59;4.60;;;4.20;;
26034;SDS011;13809;48.632;11.576;2022-09-13T20:42:03;4.70;;;4.30;;
26034;SDS011;13809;48.632;11.576;2022-09-13T20:47:08;4.30;;;3.83;;
26034;SDS011;13809;48.632;11.576;2022-09-13T20:52:12;4.37;;;3.97;;
26034;SDS011;13809;48.632;11.576;2022-09-13T20:57:15;4.37;;;4.07;;
26034;SDS011;13809;48.632;11.576;2022-09-13T21:02:19;5.13;;;4.43;;
26034;SDS011;13809;48.632;11.576;2022-09-13T21:07:23;5.00;;;4.60;;
26034;SDS011;13809;48.632;11.576;2022-09-13T21:12:43;4.63;;;4.10;;
26034;SDS011;13809;48.632;11.576;2022-09-13T21:17:51;5.73;;;3.80;;
26034;SDS011;13809;48.632;11.576;2022-09-13T21:22:55;5.17;;;4.67;;
26034;SDS011;13809;48.632;11.576;2022-09-13T21:27:58;4.60;;;4.20;;
26034;SDS011;13809;48.632;11.576;2022-09-13T21:33:03;4.80;;;4.40;;
26034;SDS011;13809;48.632;11.576;2022-09-13T21:38:06;5.10;;;4.60;;
26034;SDS011;13809;48.632;11.576;2022-09-13T21:43:09;5.17;;;4.77;;
26034;SDS011;13809;48.632;11.576;2022-09-13T21:48:13;4.97;;;4.57;;
26034;SDS011;13809;48.632;11.576;2022-09-13T21:53:16;5.80;;;5.30;;
26034;SDS011;13809;48.632;11.576;2022-09-13T21:58:20;5.50;;;5.00;;
26034;SDS011;13809;48.632;11.576;2022-09-13T22:03:24;4.60;;;4.30;;
26034;SDS011;13809;48.632;11.576;2022-09-13T22:08:28;5.10;;;4.70;;
26034;SDS011;13809;48.632;11.576;2022-09-13T22:13:32;4.83;;;4.53;;
26034;SDS011;13809;48.632;11.576;2022-09-13T22:18:38;4.97;;;4.40;;
26034;SDS011;13809;48.632;11.576;2022-09-13T22:23:42;4.93;;;4.53;;
26034;SDS011;13809;48.632;11.576;2022-09-13T22:28:45;6.00;;;5.50;;
26034;SDS011;13809;48.632;11.576;2022-09-13T22:33:50;5.63;;;5.20;;
26034;SDS011;13809;48.632;11.576;2022-09-13T22:38:55;5.80;;;4.67;;
26034;SDS011;13809;48.632;11.576;2022-09-13T22:43:59;5.07;;;4.67;;
26034;SDS011;13809;48.632;11.576;2022-09-13T22:49:05;6.57;;;4.73;;
26034;SDS011;13809;48.632;11.576;2022-09-13T22:54:09;5.30;;;4.90;;
26034;SDS011;13809;48.632;11.576;2022-09-13T22:59:13;4.77;;;4.37;;
26034;SDS011;13809;48.632;11.576;2022-09-13T23:04:19;4.53;;;4.13;;
26034;SDS011;13809;48.632;11.576;2022-09-13T23:09:22;5.37;;;4.63;;
26034;SDS011;13809;48.632;11.576;2022-09-13T23:14:25;5.20;;;4.80;;
26034;SDS011;13809;48.632;11.576;2022-09-13T23:19:31;4.90;;;4.50;;
26034;SDS011;13809;48.632;11.576;2022-09-13T23:24:34;5.07;;;4.67;;
26034;SDS011;13809;48.632;11.576;2022-09-13T23:29:37;5.87;;;5.30;;
26034;SDS011;13809;48.632;11.576;2022-09-13T23:34:42;6.30;;;5.10;;
26034;SDS011;13809;48.632;11.576;2022-09-13T23:39:45;5.13;;;4.73;;
26034;SDS011;13809;48.632;11.576;2022-09-13T23:44:48;5.00;;;4.60;;
26034;SDS011;13809;48.632;11.576;2022-09-13T23:49:53;6.17;;;5.10;;
26034;SDS011;13809;48.632;11.576;2022-09-13T23:54:56;5.23;;;4.73;;
